createdAt,value
2022-10-24T00:04:28.836Z,97870.16
2022-10-24T00:09:31.737Z,97880.31
2022-10-24T00:14:35.405Z,97869.50
2022-10-24T00:19:39.615Z,97865.34
2022-10-24T00:24:42.333Z,97866.16
2022-10-24T00:29:45.134Z,97860.91
2022-10-24T00:34:49.321Z,97857.25
2022-10-24T00:39:52.563Z,97851.59
2022-10-24T00:44:55.371Z,97863.97
2022-10-24T00:50:04.816Z,97862.31
2022-10-24T00:55:09.406Z,97843.28
2022-10-24T01:00:15.827Z,97844.25
2022-10-24T01:05:22.890Z,97836.69
2022-10-24T01:10:37.531Z,97823.53
2022-10-24T01:15:48.821Z,97828.00
2022-10-24T01:21:24.729Z,97810.63
2022-10-24T01:27:03.418Z,97808.78
2022-10-24T01:32:13.095Z,97811.31
2022-10-24T01:37:21.678Z,97797.19
2022-10-24T01:42:27.359Z,97827.47
2022-10-24T01:47:38.529Z,97828.81
2022-10-24T01:52:44.112Z,97813.28
2022-10-24T01:57:46.971Z,97814.16
2022-10-24T02:02:56.673Z,97816.28
2022-10-24T02:08:04.919Z,97817.06
2022-10-24T02:13:13.146Z,97823.38
2022-10-24T02:18:17.434Z,97822.41
2022-10-24T02:23:26.275Z,97824.16
2022-10-24T02:28:34.838Z,97808.69
2022-10-24T02:33:41.989Z,97815.16
2022-10-24T02:38:46.276Z,97816.31
2022-10-24T02:43:52.294Z,97811.72
2022-10-24T02:49:00.253Z,97790.56
2022-10-24T02:54:04.203Z,97787.72
2022-10-24T02:59:06.919Z,97797.03
2022-10-24T03:04:11.061Z,97791.84
2022-10-24T03:09:13.793Z,97791.00
2022-10-24T03:14:16.747Z,97800.97
2022-10-24T03:19:21.127Z,97801.28
2022-10-24T03:24:36.986Z,97800.22
2022-10-24T03:29:46.922Z,97810.31
2022-10-24T03:34:51.113Z,97803.63
2022-10-24T03:39:53.838Z,97802.06
2022-10-24T03:44:56.680Z,97810.94
2022-10-24T03:50:00.823Z,97804.44
2022-10-24T03:55:03.712Z,97811.41
2022-10-24T04:00:08.230Z,97804.47
2022-10-24T04:05:12.885Z,97792.22
2022-10-24T04:10:15.664Z,97785.22
2022-10-24T04:15:18.490Z,97783.00
2022-10-24T04:20:23.244Z,97787.47
2022-10-24T04:25:26.007Z,97775.38
2022-10-24T04:30:29.874Z,97777.06
2022-10-24T04:35:34.466Z,97781.31
2022-10-24T04:40:37.176Z,97779.59
2022-10-24T04:45:40.491Z,97781.56
2022-10-24T04:50:46.115Z,97790.06
2022-10-24T04:55:48.904Z,97790.56
2022-10-24T05:00:51.780Z,97802.59
2022-10-24T05:05:55.908Z,97806.31
2022-10-24T05:10:59.149Z,97806.63
2022-10-24T05:16:02.013Z,97817.94
2022-10-24T05:21:06.770Z,97813.75
2022-10-24T05:26:10.229Z,97819.94
2022-10-24T05:31:12.938Z,97813.75
2022-10-24T05:36:17.507Z,97809.75
2022-10-24T05:41:20.359Z,97813.88
2022-10-24T05:46:24.076Z,97813.44
2022-10-24T05:51:28.337Z,97809.25
2022-10-24T05:56:31.131Z,97804.44
2022-10-24T06:01:34.486Z,97790.94
2022-10-24T06:06:40.907Z,97790.63
2022-10-24T06:11:43.703Z,97801.13
2022-10-24T06:16:46.669Z,97802.59
2022-10-24T06:21:50.847Z,97817.91
2022-10-24T06:26:53.603Z,97819.31
2022-10-24T06:31:56.464Z,97823.84
2022-10-24T06:37:02.571Z,97815.50
2022-10-24T06:42:05.521Z,97811.22
2022-10-24T06:47:08.314Z,97811.72
2022-10-24T06:52:12.461Z,97823.63
2022-10-24T06:57:15.628Z,97815.78
2022-10-24T07:02:18.668Z,97811.94
2022-10-24T07:07:23.603Z,97804.09
2022-10-24T07:12:26.769Z,97810.81
2022-10-24T07:17:29.961Z,97815.38
2022-10-24T07:22:34.165Z,97819.91
2022-10-24T07:27:36.890Z,97815.94
2022-10-24T07:32:39.669Z,97813.59
2022-10-24T07:37:45.018Z,97837.03
2022-10-24T07:42:48.441Z,97842.44
2022-10-24T07:47:51.168Z,97851.00
2022-10-24T07:52:55.644Z,97859.88
2022-10-24T07:57:58.496Z,97865.22
2022-10-24T08:03:01.337Z,97860.59
2022-10-24T08:08:35.119Z,97871.59
2022-10-24T08:13:32.042Z,97872.38
2022-10-24T08:18:41.667Z,97875.03
2022-10-24T08:23:49.486Z,97882.00
2022-10-24T08:28:53.274Z,97881.22
2022-10-24T08:33:56.983Z,97858.66
2022-10-24T08:39:02.756Z,97859.09
2022-10-24T08:44:15.291Z,97853.78
2022-10-24T08:49:29.248Z,97839.63
2022-10-24T08:54:37.706Z,97835.13
2022-10-24T08:59:40.465Z,97834.47
2022-10-24T09:04:50.321Z,97839.91
2022-10-24T09:10:04.388Z,97844.06
2022-10-24T09:15:16.824Z,97835.06
2022-10-24T09:20:25.848Z,97843.53
2022-10-24T09:25:35.621Z,97851.75
2022-10-24T09:30:39.079Z,97846.84
2022-10-24T09:35:44.056Z,97846.38
2022-10-24T09:40:51.661Z,97844.69
2022-10-24T09:46:03.373Z,97863.72
2022-10-24T09:51:08.165Z,97865.91
2022-10-24T09:56:14.213Z,97874.19
2022-10-24T10:01:22.678Z,97880.31
2022-10-24T10:06:25.718Z,97889.31
2022-10-24T10:11:35.386Z,97894.84
2022-10-24T10:16:43.593Z,97893.88
2022-10-24T10:21:55.360Z,97907.88
2022-10-24T10:26:59.483Z,97921.34
2022-10-24T10:32:11.719Z,97912.91
2022-10-24T10:37:26.569Z,97910.63
2022-10-24T10:42:39.663Z,97928.13
2022-10-24T10:47:57.168Z,97925.25
2022-10-24T10:53:09.805Z,97921.66
2022-10-24T10:58:26.722Z,97930.41
2022-10-24T11:03:39.183Z,97925.81
2022-10-24T11:09:15.823Z,97935.16
2022-10-24T11:14:30.707Z,97937.25
2022-10-24T11:19:41.359Z,97942.44
2022-10-24T11:24:50.158Z,97955.72
2022-10-24T11:29:58.061Z,97951.06
2022-10-24T11:35:06.155Z,97951.84
2022-10-24T11:40:13.700Z,97951.63
2022-10-24T11:45:21.226Z,97946.66
2022-10-24T11:50:29.887Z,97954.72
2022-10-24T11:55:39.164Z,97952.91
2022-10-24T12:01:04.730Z,97953.91
2022-10-24T12:06:35.876Z,97941.22
2022-10-24T12:12:06.257Z,97940.78
2022-10-24T12:17:38.505Z,97938.88
2022-10-24T12:22:45.254Z,97941.00
2022-10-24T12:27:55.232Z,97941.78
2022-10-24T12:33:10.353Z,97948.41
2022-10-24T12:38:39.786Z,97944.38
2022-10-24T12:43:45.456Z,97946.09
2022-10-24T12:49:23.180Z,97942.63
2022-10-24T12:54:43.082Z,97943.94
2022-10-24T12:59:52.816Z,97934.72
2022-10-24T13:05:10.728Z,97943.88
2022-10-24T13:10:28.955Z,97936.97
2022-10-24T13:15:47.797Z,97941.31
2022-10-24T13:21:14.132Z,97941.91
2022-10-24T13:26:38.401Z,97946.41
2022-10-24T13:31:48.722Z,97939.13
2022-10-24T13:36:58.785Z,97941.50
2022-10-24T13:42:05.987Z,97941.94
2022-10-24T13:47:17.936Z,97937.41
2022-10-24T13:52:26.228Z,97940.38
2022-10-24T13:57:36.260Z,97931.44
2022-10-24T14:02:43.155Z,97932.97
2022-10-24T14:07:46.739Z,97924.72
2022-10-24T14:12:51.957Z,97930.81
2022-10-24T14:18:00.013Z,97931.84
2022-10-24T14:23:03.226Z,97948.63
2022-10-24T14:28:15.801Z,97955.56
2022-10-24T14:33:25.716Z,97954.13
2022-10-24T14:38:30.305Z,97954.34
2022-10-24T14:43:33.819Z,97956.06
2022-10-24T14:48:39.462Z,97963.75
2022-10-24T14:53:46.026Z,97962.50
2022-10-24T14:58:52.019Z,97958.94
2022-10-24T15:03:57.675Z,97962.69
2022-10-24T15:09:06.599Z,97966.31
2022-10-24T15:14:34.308Z,97966.16
2022-10-24T15:19:39.541Z,97968.09
2022-10-24T15:24:44.412Z,97971.91
2022-10-24T15:29:48.089Z,97974.00
2022-10-24T15:34:55.097Z,97982.03
2022-10-24T15:39:57.911Z,97977.03
2022-10-24T15:45:02.299Z,97987.44
2022-10-24T15:50:07.379Z,97990.66
2022-10-24T15:55:17.888Z,97996.63
2022-10-24T16:00:23.596Z,97994.34
2022-10-24T16:05:31.745Z,97989.44
2022-10-24T16:10:34.671Z,97989.16
2022-10-24T16:15:39.112Z,97978.63
2022-10-24T16:20:43.458Z,97970.72
2022-10-24T16:25:46.456Z,97980.34
2022-10-24T16:30:49.343Z,97982.38
2022-10-24T16:35:53.715Z,97978.91
2022-10-24T16:40:56.576Z,97979.34
2022-10-24T16:46:00.850Z,97992.81
2022-10-24T16:51:10.438Z,98000.13
2022-10-24T16:56:15.502Z,98014.13
2022-10-24T17:01:21.456Z,98018.69
2022-10-24T17:06:25.626Z,98033.38
2022-10-24T17:16:51.751Z,98044.69
2022-10-24T17:21:57.130Z,98049.22
2022-10-24T17:27:00.157Z,98040.31
2022-10-24T17:32:03.329Z,98042.50
2022-10-24T17:37:11.898Z,98041.19
2022-10-24T17:42:15.184Z,98048.59
2022-10-24T17:47:18.237Z,98048.97
2022-10-24T17:52:25.305Z,98046.44
2022-10-24T18:02:55.105Z,98052.75
2022-10-24T18:08:00.292Z,98056.28
2022-10-24T18:13:03.211Z,98067.53
2022-10-24T18:18:06.759Z,98065.06
2022-10-24T18:23:10.902Z,98062.22
2022-10-24T18:28:13.804Z,98081.03
2022-10-24T18:33:17.639Z,98078.00
2022-10-24T18:38:21.820Z,98084.38
2022-10-24T18:43:25.096Z,98085.38
2022-10-24T18:48:29.011Z,98079.69
2022-10-24T18:53:36.915Z,98067.97
2022-10-24T18:58:41.497Z,98077.38
2022-10-24T19:03:47.155Z,98077.03
2022-10-24T19:08:52.879Z,98084.25
2022-10-24T19:13:55.933Z,98094.66
2022-10-24T19:19:00.981Z,98087.41
2022-10-24T19:24:05.379Z,98091.44
2022-10-24T19:29:08.269Z,98090.44
2022-10-24T19:34:11.728Z,98098.28
2022-10-24T19:39:16.304Z,98088.75
2022-10-24T19:44:21.287Z,98088.06
2022-10-24T19:49:24.119Z,98093.44
2022-10-24T19:54:28.318Z,98091.75
2022-10-24T19:59:33.920Z,98088.06
2022-10-24T20:04:40.086Z,98083.88
2022-10-24T20:09:45.355Z,98094.78
2022-10-24T20:14:48.622Z,98093.72
2022-10-24T20:19:51.429Z,98096.91
2022-10-24T20:24:55.494Z,98104.13
2022-10-24T20:29:58.255Z,98100.44
2022-10-24T20:35:01.339Z,98103.44
2022-10-24T20:40:06.330Z,98116.47
2022-10-24T20:45:10.027Z,98121.81
2022-10-24T20:50:13.188Z,98129.44
2022-10-24T20:55:31.661Z,98129.63
2022-10-24T21:05:43.840Z,98146.22
2022-10-24T21:10:48.091Z,98144.53
2022-10-24T21:15:55.838Z,98146.72
2022-10-24T21:20:58.613Z,98155.09
2022-10-24T21:26:05.233Z,98163.59
2022-10-24T21:31:09.625Z,98172.16
2022-10-24T21:36:14.882Z,98187.59
2022-10-24T21:41:20.851Z,98191.00
2022-10-24T21:46:26.496Z,98193.53
2022-10-24T21:51:32.638Z,98197.22
2022-10-24T21:56:37.744Z,98191.53
2022-10-24T22:01:41.516Z,98210.41
2022-10-24T22:06:45.538Z,98205.19
2022-10-24T22:11:49.708Z,98213.06
2022-10-24T22:16:52.507Z,98214.19
2022-10-24T22:21:55.238Z,98220.06
2022-10-24T22:26:59.412Z,98219.88
2022-10-24T22:32:02.701Z,98221.06
2022-10-24T22:37:13.762Z,98229.69
2022-10-24T22:42:20.222Z,98224.66
2022-10-24T22:47:55.878Z,98238.00
2022-10-24T22:52:59.107Z,98237.69
2022-10-24T22:58:03.953Z,98233.19
2022-10-24T23:03:21.391Z,98236.69
2022-10-24T23:08:32.623Z,98241.91
2022-10-24T23:13:37.519Z,98253.00
2022-10-24T23:18:40.718Z,98259.69
2022-10-24T23:23:43.923Z,98265.72
2022-10-24T23:28:52.809Z,98250.09
2022-10-24T23:33:56.002Z,98262.97
2022-10-24T23:38:59.317Z,98264.94
2022-10-24T23:44:03.919Z,98279.81
2022-10-24T23:49:22.775Z,98283.97
2022-10-24T23:54:27.681Z,98277.09
2022-10-24T23:59:31.849Z,98280.91
